Time;durP1;ratioP1;P1;durP2;ratioP2;P2;SDS_P1;SDS_P2;PMS_P1;PMS_P2;Temp;Humidity;BMP_temperature;BMP_pressure;BME280_temperature;BME280_humidity;BME280_pressure;Samples;Min_cycle;Max_cycle;Signal;HPM_P1;HPM_P2
2022/08/10 00:00:20;;;;;;;6.78;5.13;;;16.90;99.90;;;;;;5117397;28;20158;-71
2022/08/10 00:02:51;;;;;;;7.78;4.80;;;16.90;99.90;;;;;;5115898;28;20391;-70
2022/08/10 00:05:18;;;;;;;8.15;5.38;;;16.90;99.90;;;;;;5116906;28;20039;-71
2022/08/10 00:07:44;;;;;;;7.05;5.13;;;16.90;99.90;;;;;;5116307;28;20087;-71
2022/08/10 00:10:11;;;;;;;6.45;4.75;;;16.90;99.90;;;;;;5117204;28;20105;-71
2022/08/10 00:12:37;;;;;;;8.15;4.60;;;16.90;99.90;;;;;;5117234;28;20048;-71
2022/08/10 00:15:05;;;;;;;6.50;4.85;;;16.80;99.90;;;;;;5117185;28;20051;-71
2022/08/10 00:17:31;;;;;;;5.75;4.80;;;16.80;99.90;;;;;;5116750;28;20109;-71
2022/08/10 00:19:56;;;;;;;6.20;4.55;;;16.80;99.90;;;;;;5116734;28;20051;-71
2022/08/10 00:22:22;;;;;;;6.55;4.57;;;16.80;99.90;;;;;;5117045;28;20129;-71
2022/08/10 00:24:48;;;;;;;5.30;4.10;;;16.80;99.90;;;;;;5117240;28;20047;-70
2022/08/10 00:27:13;;;;;;;7.95;4.90;;;16.80;99.90;;;;;;5116896;28;20039;-70
2022/08/10 00:29:39;;;;;;;7.50;4.72;;;16.80;99.90;;;;;;5115783;28;20499;-70
2022/08/10 00:32:05;;;;;;;6.38;4.88;;;16.80;99.90;;;;;;5115299;28;20044;-70
2022/08/10 00:34:32;;;;;;;5.30;4.55;;;16.70;99.90;;;;;;5115097;28;20047;-70
2022/08/10 00:36:59;;;;;;;6.90;4.63;;;16.70;99.90;;;;;;5115482;28;20479;-71
2022/08/10 00:39:25;;;;;;;7.20;4.55;;;16.70;99.90;;;;;;5117058;28;20094;-71
2022/08/10 00:41:52;;;;;;;5.65;4.82;;;16.70;99.90;;;;;;5116479;28;20082;-71
2022/08/10 00:44:18;;;;;;;7.50;4.68;;;16.70;99.90;;;;;;5116380;28;20048;-71
2022/08/10 00:46:43;;;;;;;6.18;3.85;;;16.70;99.90;;;;;;5116312;28;20044;-71
2022/08/10 00:49:09;;;;;;;5.05;4.13;;;16.60;99.90;;;;;;5116211;28;20043;-70
2022/08/10 00:51:35;;;;;;;7.65;4.30;;;16.60;99.90;;;;;;5115172;28;20044;-71
2022/08/10 00:54:01;;;;;;;5.15;4.22;;;16.60;99.90;;;;;;5116298;28;20048;-70
2022/08/10 00:56:27;;;;;;;7.65;4.95;;;16.60;99.90;;;;;;5116165;28;20039;-70
2022/08/10 00:58:53;;;;;;;5.20;4.28;;;16.60;99.90;;;;;;5114826;28;20504;-70
2022/08/10 01:01:19;;;;;;;6.40;4.90;;;16.50;99.90;;;;;;5114876;28;20047;-71
2022/08/10 01:03:44;;;;;;;6.25;4.60;;;16.50;99.90;;;;;;5115573;28;20043;-70
2022/08/10 01:06:35;;;;;;;7.90;4.90;;;16.50;99.90;;;;;;5115805;28;20059;-71
2022/08/10 01:09:22;;;;;;;5.88;4.35;;;16.50;99.90;;;;;;5115934;28;20479;-70
2022/08/10 01:11:55;;;;;;;5.72;4.22;;;16.40;99.90;;;;;;5115846;28;20047;-70
2022/08/10 01:14:34;;;;;;;5.88;4.13;;;16.30;99.90;;;;;;5115651;28;20052;-70
2022/08/10 01:17:21;;;;;;;5.32;4.13;;;16.30;99.90;;;;;;5114645;28;20047;-70
2022/08/10 01:20:03;;;;;;;7.72;4.88;;;16.30;99.90;;;;;;5093791;27;20054;-70
2022/08/10 01:22:59;;;;;;;7.70;4.65;;;16.30;99.90;;;;;;5115463;28;20556;-70
2022/08/10 01:25:30;;;;;;;5.97;4.13;;;16.20;99.90;;;;;;5115820;28;20177;-70
2022/08/10 01:28:18;;;;;;;6.18;4.65;;;16.20;99.90;;;;;;5115846;28;20051;-70
2022/08/10 01:30:46;;;;;;;7.22;4.55;;;16.30;99.90;;;;;;5114417;28;20046;-70
2022/08/10 01:33:20;;;;;;;6.13;4.40;;;16.20;99.90;;;;;;5115488;28;20447;-70
2022/08/10 01:36:11;;;;;;;6.13;4.68;;;16.20;99.90;;;;;;5115869;28;20092;-70
2022/08/10 01:38:40;;;;;;;6.90;4.45;;;16.20;99.90;;;;;;5115293;28;20518;-70
2022/08/10 01:41:12;;;;;;;5.93;4.65;;;16.20;99.90;;;;;;5115278;28;20093;-70
2022/08/10 01:43:47;;;;;;;9.43;5.78;;;16.20;99.90;;;;;;5115712;28;20193;-70
2022/08/10 01:46:14;;;;;;;6.32;5.22;;;16.20;99.90;;;;;;5114111;28;20039;-70
2022/08/10 01:48:50;;;;;;;8.32;5.30;;;16.20;99.90;;;;;;5115144;28;20047;-70
2022/08/10 01:51:48;;;;;;;7.68;5.57;;;16.20;99.90;;;;;;5114201;28;20050;-70
2022/08/10 01:54:18;;;;;;;7.53;5.10;;;16.20;99.90;;;;;;5106781;28;20051;-70
2022/08/10 01:56:51;;;;;;;8.02;5.45;;;16.20;99.90;;;;;;5115096;28;20515;-70
2022/08/10 01:59:43;;;;;;;8.40;5.60;;;16.20;99.90;;;;;;5115083;28;20058;-70
2022/08/10 02:02:12;;;;;;;7.15;5.38;;;16.20;99.90;;;;;;5112877;28;20406;-70
2022/08/10 02:04:43;;;;;;;7.13;5.20;;;16.20;99.90;;;;;;5114593;28;20048;-70
2022/08/10 02:07:15;;;;;;;6.38;5.22;;;16.20;99.90;;;;;;5114795;28;20054;-70
2022/08/10 02:09:45;;;;;;;8.15;5.30;;;16.20;99.90;;;;;;5114844;28;20086;-71
2022/08/10 02:12:14;;;;;;;6.13;5.00;;;16.20;99.90;;;;;;5114703;28;20047;-71
2022/08/10 02:15:09;;;;;;;6.95;5.05;;;16.30;99.90;;;;;;5114678;28;20050;-71
2022/08/10 02:17:39;;;;;;;10.07;5.43;;;16.20;99.90;;;;;;5113856;28;20353;-71
2022/08/10 02:20:08;;;;;;;8.27;5.78;;;16.20;99.90;;;;;;5112926;28;20047;-71
2022/08/10 02:22:37;;;;;;;8.85;5.63;;;16.20;99.90;;;;;;5114471;28;20035;-70
2022/08/10 02:25:04;;;;;;;8.55;5.88;;;16.20;99.90;;;;;;5114356;28;20440;-70
2022/08/10 02:27:32;;;;;;;7.80;5.72;;;16.20;99.90;;;;;;5114472;28;20391;-70
2022/08/10 02:29:59;;;;;;;7.18;5.47;;;16.20;99.90;;;;;;5114481;28;20047;-71
2022/08/10 02:32:27;;;;;;;8.32;5.80;;;16.20;99.90;;;;;;5114363;28;20130;-71
2022/08/10 02:34:56;;;;;;;9.57;6.35;;;16.20;99.90;;;;;;5113792;28;20418;-70
2022/08/10 02:37:25;;;;;;;8.27;5.80;;;16.20;99.90;;;;;;5114122;28;20095;-71
2022/08/10 02:39:51;;;;;;;9.48;6.35;;;16.20;99.90;;;;;;5114277;28;20047;-70
2022/08/10 02:42:27;;;;;;;8.52;6.15;;;16.20;99.90;;;;;;5113029;28;20372;-70
2022/08/10 02:45:02;;;;;;;9.40;6.50;;;16.10;99.90;;;;;;5114319;28;20131;-70
2022/08/10 02:47:51;;;;;;;10.57;6.78;;;16.10;99.90;;;;;;5096582;28;20126;-71
2022/08/10 02:50:32;;;;;;;8.35;6.47;;;16.10;99.90;;;;;;5107447;28;20095;-71
2022/08/10 02:53:29;;;;;;;9.45;6.68;;;16.10;99.90;;;;;;5114366;28;20424;-70
2022/08/10 02:56:03;;;;;;;8.18;6.78;;;16.10;99.90;;;;;;5111970;28;20487;-70
2022/08/10 02:58:46;;;;;;;10.18;6.75;;;16.10;99.90;;;;;;5113676;28;20515;-71
2022/08/10 03:01:17;;;;;;;9.15;6.30;;;16.20;99.90;;;;;;5114382;28;20055;-70
2022/08/10 03:04:05;;;;;;;9.45;6.72;;;16.10;99.90;;;;;;5112551;28;20131;-70
2022/08/10 03:06:38;;;;;;;9.02;5.82;;;16.20;99.90;;;;;;5114067;28;20134;-71
2022/08/10 03:09:06;;;;;;;9.55;6.65;;;16.10;99.90;;;;;;5113929;28;20047;-70
2022/08/10 03:11:34;;;;;;;8.65;6.28;;;16.10;99.90;;;;;;5114063;28;20503;-71
2022/08/10 03:14:00;;;;;;;7.90;6.28;;;16.10;99.90;;;;;;5113960;28;20047;-70
2022/08/10 03:16:28;;;;;;;9.68;6.90;;;16.10;99.90;;;;;;5114015;28;20052;-70
2022/08/10 03:18:56;;;;;;;9.75;6.22;;;16.10;99.90;;;;;;5113836;28;20039;-70
2022/08/10 03:21:26;;;;;;;9.90;6.75;;;16.10;99.90;;;;;;5113855;28;20051;-70
2022/08/10 03:23:53;;;;;;;8.77;6.65;;;16.10;99.90;;;;;;5112980;28;20490;-71
2022/08/10 03:26:19;;;;;;;10.68;7.10;;;16.10;99.90;;;;;;5113972;28;20087;-70
2022/08/10 03:28:46;;;;;;;8.80;6.65;;;16.10;99.90;;;;;;5113952;28;20065;-70
2022/08/10 03:31:12;;;;;;;9.85;6.57;;;16.10;99.90;;;;;;5117096;28;20044;-70
2022/08/10 03:33:40;;;;;;;8.45;6.80;;;16.00;99.90;;;;;;5117269;28;20036;-70
2022/08/10 03:36:06;;;;;;;11.32;6.68;;;16.00;99.90;;;;;;5117867;28;20097;-70
2022/08/10 03:38:33;;;;;;;8.80;6.35;;;16.00;99.90;;;;;;5116746;28;20043;-71
2022/08/10 03:41:02;;;;;;;8.73;6.25;;;16.10;99.90;;;;;;5117928;28;20092;-71
2022/08/10 03:43:29;;;;;;;10.25;6.65;;;16.00;99.90;;;;;;5117797;28;20043;-70
2022/08/10 03:45:58;;;;;;;10.95;7.00;;;16.00;99.90;;;;;;5117801;28;20048;-71
2022/08/10 03:48:27;;;;;;;9.65;6.43;;;16.00;99.90;;;;;;5117639;27;20039;-70
2022/08/10 03:50:55;;;;;;;12.25;6.43;;;16.00;99.90;;;;;;5117441;28;20551;-71
2022/08/10 03:53:21;;;;;;;9.35;6.32;;;16.00;99.90;;;;;;5117722;27;20171;-71
2022/08/10 03:55:47;;;;;;;11.27;7.15;;;16.10;99.90;;;;;;5117631;28;20048;-71
2022/08/10 03:58:13;;;;;;;10.35;5.93;;;16.10;99.90;;;;;;5116030;28;20135;-71
2022/08/10 04:00:40;;;;;;;7.78;6.10;;;16.10;99.90;;;;;;5099286;28;20134;-70
2022/08/10 04:03:08;;;;;;;7.97;6.28;;;16.10;99.90;;;;;;5116872;27;20047;-70
2022/08/10 04:05:35;;;;;;;9.73;5.45;;;16.10;99.90;;;;;;5117672;28;20043;-70
2022/08/10 04:08:01;;;;;;;8.95;6.07;;;16.10;99.90;;;;;;5098978;28;20086;-70
2022/08/10 04:10:27;;;;;;;8.30;5.45;;;16.10;99.90;;;;;;5117224;28;20044;-71
2022/08/10 04:12:54;;;;;;;9.00;5.68;;;16.10;99.90;;;;;;5115860;28;20044;-70
2022/08/10 04:15:20;;;;;;;11.20;5.82;;;16.10;99.90;;;;;;5116938;28;20062;-70
2022/08/10 04:17:46;;;;;;;9.77;6.25;;;16.10;99.90;;;;;;5115984;28;20044;-71
2022/08/10 04:20:31;;;;;;;8.95;5.68;;;16.10;99.90;;;;;;5116040;28;20093;-71
2022/08/10 04:23:03;;;;;;;8.48;6.10;;;16.10;99.90;;;;;;5117206;28;20128;-71
2022/08/10 04:25:30;;;;;;;9.60;6.50;;;16.10;99.90;;;;;;5115794;28;20048;-71
2022/08/10 04:27:57;;;;;;;11.05;6.30;;;16.10;99.90;;;;;;5116804;28;20044;-71
2022/08/10 04:30:23;;;;;;;12.35;6.10;;;16.10;99.90;;;;;;5115646;28;20048;-71
2022/08/10 04:32:52;;;;;;;9.60;6.53;;;16.10;99.90;;;;;;5116531;28;20051;-72
2022/08/10 04:35:19;;;;;;;8.80;6.47;;;16.10;99.90;;;;;;5116672;28;20073;-70
2022/08/10 04:37:47;;;;;;;8.65;6.50;;;16.20;99.90;;;;;;5116612;28;20043;-71
2022/08/10 04:40:13;;;;;;;10.57;6.22;;;16.10;99.90;;;;;;5116745;28;20054;-71
2022/08/10 04:42:39;;;;;;;10.60;5.75;;;16.10;99.90;;;;;;5097446;28;20181;-70
2022/08/10 04:45:10;;;;;;;9.40;6.13;;;16.10;99.90;;;;;;5098965;28;20122;-71
2022/08/10 04:47:37;;;;;;;7.45;5.72;;;16.10;99.90;;;;;;5115384;28;20122;-71
2022/08/10 04:50:03;;;;;;;7.05;5.22;;;16.20;99.90;;;;;;5116476;28;20040;-71
2022/08/10 04:52:29;;;;;;;9.82;5.68;;;16.10;99.90;;;;;;5116337;28;20576;-70
2022/08/10 04:54:55;;;;;;;8.50;6.00;;;16.10;99.90;;;;;;5116268;28;20075;-71
2022/08/10 04:57:24;;;;;;;8.68;5.38;;;16.10;99.90;;;;;;5116076;28;20224;-70
2022/08/10 04:59:49;;;;;;;9.15;5.60;;;16.10;99.90;;;;;;5116098;28;20146;-70
2022/08/10 05:02:15;;;;;;;7.47;5.40;;;16.10;99.90;;;;;;5115071;28;20047;-70
2022/08/10 05:04:41;;;;;;;7.45;5.22;;;16.20;99.90;;;;;;5115593;28;20546;-71
2022/08/10 05:07:09;;;;;;;8.38;5.13;;;16.20;99.90;;;;;;5116067;28;20054;-71
2022/08/10 05:09:39;;;;;;;8.23;5.05;;;16.20;99.90;;;;;;5114808;28;20116;-71
2022/08/10 05:12:06;;;;;;;8.15;5.30;;;16.20;99.90;;;;;;5114900;28;20050;-70
2022/08/10 05:14:32;;;;;;;9.45;4.97;;;16.30;99.90;;;;;;5116262;28;20047;-71
2022/08/10 05:16:58;;;;;;;7.05;4.78;;;16.30;99.90;;;;;;5114838;28;20126;-71
2022/08/10 05:19:25;;;;;;;9.10;4.68;;;16.40;99.90;;;;;;5115739;28;20142;-71
2022/08/10 05:21:51;;;;;;;8.02;4.72;;;16.40;99.90;;;;;;5115749;28;20108;-71
2022/08/10 05:24:16;;;;;;;7.40;4.70;;;16.40;99.90;;;;;;5114634;28;20054;-71
2022/08/10 05:26:42;;;;;;;8.13;4.55;;;16.50;99.90;;;;;;5115489;27;20402;-71
2022/08/10 05:29:08;;;;;;;7.50;5.22;;;16.40;99.90;;;;;;5115734;27;20055;-71
2022/08/10 05:31:34;;;;;;;6.85;4.82;;;16.50;99.90;;;;;;5115496;28;20082;-71
2022/08/10 05:34:00;;;;;;;9.65;5.03;;;16.60;99.90;;;;;;5114969;28;20175;-71
2022/08/10 05:36:26;;;;;;;7.97;4.88;;;16.60;99.90;;;;;;5115512;28;20060;-70
2022/08/10 05:38:54;;;;;;;8.65;5.50;;;16.70;99.90;;;;;;5115371;28;20044;-72
2022/08/10 05:41:20;;;;;;;7.75;4.95;;;16.70;99.90;;;;;;5114151;28;20047;-71
2022/08/10 05:43:45;;;;;;;6.80;4.82;;;16.70;99.90;;;;;;5115370;28;20060;-70
2022/08/10 05:46:11;;;;;;;8.05;5.30;;;16.90;99.90;;;;;;5115800;27;20043;-70
2022/08/10 05:48:39;;;;;;;8.07;4.80;;;16.80;99.90;;;;;;5115443;28;20039;-71
2022/08/10 05:51:05;;;;;;;6.82;4.53;;;16.90;99.90;;;;;;5114278;28;20044;-70
2022/08/10 05:53:32;;;;;;;7.72;4.32;;;16.90;99.90;;;;;;5115104;28;20047;-70
2022/08/10 05:55:58;;;;;;;8.77;4.43;;;17.00;99.90;;;;;;5115309;28;20048;-71
2022/08/10 05:58:24;;;;;;;7.45;4.32;;;17.10;99.90;;;;;;5114795;28;20510;-71
2022/08/10 06:00:54;;;;;;;6.97;4.43;;;17.00;99.90;;;;;;5113879;28;20135;-71
2022/08/10 06:03:26;;;;;;;5.80;4.13;;;17.40;99.90;;;;;;5114617;28;20238;-71
2022/08/10 06:05:55;;;;;;;4.70;3.27;;;17.30;99.90;;;;;;5114850;28;20079;-71
2022/08/10 06:08:23;;;;;;;4.65;2.90;;;17.40;99.90;;;;;;5114624;28;20059;-71
2022/08/10 06:10:54;;;;;;;3.65;2.60;;;17.30;99.90;;;;;;5115106;28;20052;-71
2022/08/10 06:16:09;;;;;;;4.18;2.53;;;17.60;99.90;;;;;;5113921;28;20051;-71
2022/08/10 06:18:36;;;;;;;4.63;2.20;;;17.70;99.90;;;;;;5113378;28;20046;-71
2022/08/10 06:21:02;;;;;;;4.20;2.10;;;17.90;99.90;;;;;;5114665;28;20047;-71
2022/08/10 06:23:30;;;;;;;6.60;2.90;;;17.40;99.90;;;;;;5113400;28;20051;-71
2022/08/10 06:25:56;;;;;;;4.65;2.80;;;17.60;99.90;;;;;;5113366;28;20055;-71
2022/08/10 06:28:24;;;;;;;4.30;2.78;;;17.80;99.90;;;;;;5114462;28;20043;-71
2022/08/10 06:30:52;;;;;;;4.82;2.40;;;17.80;99.90;;;;;;5114422;28;20423;-71
2022/08/10 06:33:21;;;;;;;5.47;1.92;;;17.90;99.90;;;;;;5113617;28;20089;-71
2022/08/10 06:35:52;;;;;;;3.40;2.10;;;17.80;99.90;;;;;;5114425;28;20048;-71
2022/08/10 06:38:18;;;;;;;4.93;2.00;;;;;;;;;;5114440;28;20043;-71
2022/08/10 06:40:47;;;;;;;2.15;1.90;;;17.80;99.90;;;;;;5114359;28;20093;-71
2022/08/10 06:43:15;;;;;;;2.88;2.10;;;17.90;99.90;;;;;;5113171;28;20047;-72
2022/08/10 06:45:54;;;;;;;4.57;2.15;;;17.90;99.90;;;;;;5114076;28;20082;-71
2022/08/10 06:48:25;;;;;;;3.25;2.00;;;18.00;99.90;;;;;;5114133;28;20044;-71
2022/08/10 06:51:01;;;;;;;4.70;1.90;;;18.00;99.90;;;;;;5114228;28;20073;-71
2022/08/10 06:53:32;;;;;;;2.65;1.90;;;18.10;99.90;;;;;;5114094;28;20043;-71
2022/08/10 06:56:02;;;;;;;3.30;1.75;;;18.10;99.90;;;;;;5113813;28;20130;-71
2022/08/10 06:58:34;;;;;;;3.17;1.63;;;18.10;99.90;;;;;;5112616;28;20059;-72
2022/08/10 07:01:03;;;;;;;2.80;1.70;;;18.20;99.90;;;;;;5114383;28;20035;-71
2022/08/10 07:03:35;;;;;;;3.05;1.70;;;18.20;99.90;;;;;;5113378;28;20048;-71
2022/08/10 07:06:03;;;;;;;3.67;1.73;;;18.30;99.90;;;;;;5113507;28;20063;-72
2022/08/10 07:08:32;;;;;;;2.75;1.60;;;18.40;99.90;;;;;;5113885;28;20051;-71
2022/08/10 07:11:00;;;;;;;2.65;1.80;;;18.40;99.90;;;;;;5112655;28;20463;-71
2022/08/10 07:13:30;;;;;;;2.63;1.55;;;18.40;99.90;;;;;;5112698;28;20082;-71
2022/08/10 07:15:58;;;;;;;2.70;1.50;;;18.50;99.90;;;;;;5113856;28;20044;-72
2022/08/10 07:18:25;;;;;;;2.47;1.48;;;18.50;99.90;;;;;;5113665;28;20101;-71
2022/08/10 07:20:52;;;;;;;2.20;1.13;;;18.60;99.90;;;;;;5112646;28;20051;-71
2022/08/10 07:23:22;;;;;;;1.98;1.60;;;18.70;99.90;;;;;;5113797;28;20051;-71
2022/08/10 07:25:50;;;;;;;3.30;1.60;;;18.70;99.90;;;;;;5112964;28;20126;-71
2022/08/10 07:28:18;;;;;;;3.83;1.30;;;18.80;99.90;;;;;;5113793;28;20115;-71
2022/08/10 07:30:45;;;;;;;3.00;1.33;;;18.80;99.90;;;;;;5113824;28;20062;-70
2022/08/10 07:33:14;;;;;;;3.40;1.20;;;18.80;99.90;;;;;;5113434;28;20112;-72
2022/08/10 07:35:43;;;;;;;2.60;1.00;;;18.90;99.90;;;;;;5116842;28;20056;-73
2022/08/10 07:38:30;;;;;;;3.17;1.20;;;18.90;99.90;;;;;;5113486;28;20488;-73
2022/08/10 07:40:59;;;;;;;2.33;1.13;;;19.00;99.90;;;;;;5112265;28;20084;-72
2022/08/10 07:43:26;;;;;;;2.38;1.00;;;19.10;99.90;;;;;;5113579;28;20054;-73
2022/08/10 07:45:54;;;;;;;1.95;1.02;;;19.10;99.90;;;;;;5113700;28;20100;-73
2022/08/10 07:48:33;;;;;;;2.90;1.20;;;19.30;99.90;;;;;;5113366;28;20040;-74
2022/08/10 07:51:00;;;;;;;2.92;1.23;;;19.40;99.90;;;;;;5113957;28;20047;-74
2022/08/10 07:53:36;;;;;;;1.85;1.08;;;19.40;99.90;;;;;;5113575;28;20048;-72
2022/08/10 07:56:03;;;;;;;2.28;0.75;;;19.40;99.90;;;;;;5112138;28;20047;-74
2022/08/10 07:58:37;;;;;;;3.70;1.02;;;19.40;99.90;;;;;;5113331;28;20495;-74
2022/08/10 08:01:02;;;;;;;1.67;1.10;;;19.50;99.90;;;;;;5112387;28;20055;-74
2022/08/10 08:03:31;;;;;;;2.85;1.50;;;19.60;99.90;;;;;;5113221;28;20483;-73
2022/08/10 08:05:59;;;;;;;3.50;1.23;;;19.60;99.90;;;;;;5113920;28;20044;-73
2022/08/10 08:08:28;;;;;;;2.30;1.20;;;19.70;99.90;;;;;;5113604;28;20421;-74
2022/08/10 08:10:56;;;;;;;4.68;1.35;;;19.70;99.90;;;;;;5113457;28;20066;-74
2022/08/10 08:13:23;;;;;;;2.40;1.00;;;19.80;99.90;;;;;;5113257;28;20535;-72
2022/08/10 08:15:52;;;;;;;2.60;1.00;;;19.80;99.90;;;;;;5112548;28;20368;-73
2022/08/10 08:18:20;;;;;;;1.85;1.00;;;20.00;99.90;;;;;;5116711;28;20051;-73
2022/08/10 08:20:47;;;;;;;2.83;1.00;;;19.90;99.90;;;;;;5117076;28;20259;-74
2022/08/10 08:23:15;;;;;;;2.83;1.00;;;20.10;99.90;;;;;;5117032;28;20051;-73
2022/08/10 08:25:42;;;;;;;1.40;0.77;;;20.10;99.90;;;;;;5099422;28;20100;-74
2022/08/10 08:28:09;;;;;;;3.60;1.05;;;20.10;99.90;;;;;;5115043;28;20043;-74
2022/08/10 08:30:37;;;;;;;3.17;1.10;;;20.40;99.90;;;;;;5116505;27;20051;-73
2022/08/10 08:33:05;;;;;;;1.90;1.23;;;20.30;99.90;;;;;;5115491;28;20119;-73
2022/08/10 08:35:31;;;;;;;2.00;1.10;;;;;;;;;;5113097;28;20069;-72
2022/08/10 08:37:58;;;;;;;1.10;1.00;;;20.30;99.90;;;;;;5116057;28;20483;-73
2022/08/10 08:40:35;;;;;;;3.50;0.95;;;20.30;99.90;;;;;;5115161;28;20039;-73
2022/08/10 08:43:07;;;;;;;3.75;1.20;;;20.40;99.90;;;;;;5115047;28;20039;-72
2022/08/10 08:45:57;;;;;;;5.57;1.23;;;20.40;99.90;;;;;;5113922;28;20050;-73
2022/08/10 08:48:25;;;;;;;2.45;1.17;;;20.50;99.90;;;;;;5115028;28;20069;-73
2022/08/10 08:51:16;;;;;;;2.85;1.20;;;20.60;99.90;;;;;;5113201;28;20079;-73
2022/08/10 08:53:57;;;;;;;1.77;0.88;;;20.60;99.90;;;;;;5113774;28;20486;-73
2022/08/10 08:56:23;;;;;;;3.45;1.08;;;20.70;99.90;;;;;;5114976;28;20040;-73
2022/08/10 08:58:49;;;;;;;2.85;0.90;;;20.70;99.90;;;;;;5115616;28;20052;-73
2022/08/10 09:01:48;;;;;;;3.05;0.95;;;20.80;99.90;;;;;;5114497;28;20035;-73
2022/08/10 09:04:42;;;;;;;2.70;0.95;;;20.80;99.90;;;;;;5113194;28;20086;-73
2022/08/10 09:07:52;;;;;;;3.30;1.33;;;20.90;99.90;;;;;;5114233;28;20040;-72
2022/08/10 09:10:38;;;;;;;2.13;0.95;;;21.00;99.90;;;;;;5114002;28;20138;-73
2022/08/10 09:13:28;;;;;;;3.13;0.80;;;21.00;99.90;;;;;;5113664;28;20040;-73
2022/08/10 09:16:09;;;;;;;2.05;0.73;;;21.00;99.90;;;;;;5112158;28;20128;-73
2022/08/10 09:19:05;;;;;;;2.15;1.00;;;21.10;99.90;;;;;;5097342;28;20040;-72
2022/08/10 09:21:56;;;;;;;2.95;0.90;;;21.20;99.90;;;;;;5094383;28;20048;-72
2022/08/10 09:24:35;;;;;;;2.67;0.88;;;21.20;99.90;;;;;;5095508;28;20052;-72
2022/08/10 09:27:10;;;;;;;2.28;0.88;;;21.30;99.90;;;;;;5108925;28;20245;-72
2022/08/10 09:29:46;;;;;;;3.10;0.77;;;21.30;99.90;;;;;;5102574;28;20052;-73
2022/08/10 09:32:50;;;;;;;1.58;0.80;;;21.40;99.90;;;;;;5078559;28;20048;-73
2022/08/10 09:35:26;;;;;;;3.15;1.10;;;21.40;99.90;;;;;;5093760;28;20059;-72
2022/08/10 09:38:25;;;;;;;1.67;0.90;;;21.50;99.90;;;;;;5098716;28;20040;-73
2022/08/10 09:41:10;;;;;;;1.80;1.10;;;21.60;99.90;;;;;;5088347;28;20056;-71
2022/08/10 09:44:26;;;;;;;1.48;0.80;;;21.60;99.90;;;;;;5097355;28;20127;-71
2022/08/10 09:47:04;;;;;;;3.70;0.95;;;21.70;99.90;;;;;;5046958;28;20049;-73
2022/08/10 09:49:56;;;;;;;2.67;0.95;;;21.80;99.90;;;;;;5064127;28;20140;-72
2022/08/10 09:52:37;;;;;;;1.80;1.00;;;21.90;99.90;;;;;;5084097;28;20236;-75
2022/08/10 09:55:23;;;;;;;2.70;1.00;;;21.90;99.90;;;;;;5095274;28;20082;-73
2022/08/10 09:58:05;;;;;;;3.15;0.95;;;22.00;99.90;;;;;;5096829;28;20055;-72
2022/08/10 10:00:40;;;;;;;1.67;0.80;;;22.00;99.90;;;;;;5093875;28;20055;-73
2022/08/10 10:03:32;;;;;;;2.47;0.80;;;22.10;99.90;;;;;;5105439;28;20047;-73
2022/08/10 10:06:25;;;;;;;1.42;0.80;;;22.20;99.90;;;;;;5101190;28;20445;-73
2022/08/10 10:09:01;;;;;;;2.00;0.98;;;22.20;99.90;;;;;;5097742;28;20043;-72
2022/08/10 10:12:12;;;;;;;1.27;0.85;;;22.20;99.90;;;;;;5091626;28;20051;-73
2022/08/10 10:15:21;;;;;;;2.53;0.98;;;22.30;99.90;;;;;;5083041;28;20407;-70
2022/08/10 10:18:07;;;;;;;1.52;0.82;;;22.40;99.90;;;;;;5092584;28;20089;-72
2022/08/10 10:20:41;;;;;;;2.75;0.90;;;22.40;99.90;;;;;;5096190;28;20039;-71
2022/08/10 10:23:37;;;;;;;1.77;1.08;;;22.50;99.90;;;;;;5087485;28;20043;-71
2022/08/10 10:26:20;;;;;;;4.05;1.15;;;22.50;99.90;;;;;;5092428;28;20051;-73
2022/08/10 10:29:15;;;;;;;1.20;0.80;;;22.50;99.90;;;;;;5089598;28;20078;-71
2022/08/10 10:31:55;;;;;;;1.30;1.00;;;22.50;99.90;;;;;;5098739;28;20071;-71
2022/08/10 10:34:50;;;;;;;1.58;0.93;;;22.60;99.90;;;;;;5092098;28;20127;-71
2022/08/10 10:37:22;;;;;;;2.63;0.90;;;22.70;99.90;;;;;;5096404;28;21061;-72
2022/08/10 10:39:54;;;;;;;3.17;0.75;;;22.70;99.90;;;;;;5090962;28;20105;-71
2022/08/10 10:42:30;;;;;;;2.83;1.00;;;22.80;99.90;;;;;;5093953;28;20048;-72
2022/08/10 10:45:13;;;;;;;2.38;1.20;;;22.80;99.90;;;;;;5094308;28;20039;-72
2022/08/10 10:48:01;;;;;;;2.53;0.80;;;22.90;99.90;;;;;;5096422;28;20059;-72
2022/08/10 10:50:45;;;;;;;3.03;0.70;;;22.90;99.90;;;;;;5090805;28;20048;-72
2022/08/10 10:53:43;;;;;;;1.63;0.90;;;23.00;99.90;;;;;;5094089;28;20044;-73
2022/08/10 10:56:26;;;;;;;1.02;0.77;;;23.00;99.90;;;;;;5089683;28;20052;-72
2022/08/10 10:59:06;;;;;;;3.20;1.52;;;23.10;99.90;;;;;;5096279;28;20178;-72
2022/08/10 11:02:08;;;;;;;1.40;0.70;;;23.20;99.90;;;;;;5090757;28;20138;-73
2022/08/10 11:05:07;;;;;;;1.92;0.90;;;23.20;99.90;;;;;;5095092;28;20040;-74
2022/08/10 11:07:48;;;;;;;2.53;0.90;;;23.40;99.90;;;;;;5066259;28;20048;-74
2022/08/10 11:10:20;;;;;;;4.05;0.90;;;23.40;99.90;;;;;;5091371;28;20036;-73
2022/08/10 11:13:05;;;;;;;2.47;0.95;;;23.40;99.90;;;;;;5092191;28;20134;-74
2022/08/10 11:15:35;;;;;;;1.75;0.88;;;23.40;99.90;;;;;;5091460;28;20095;-73
2022/08/10 11:18:26;;;;;;;1.23;0.77;;;23.50;99.90;;;;;;5094090;28;20040;-73
2022/08/10 11:21:13;;;;;;;2.05;0.93;;;23.60;99.90;;;;;;5093857;28;20062;-73
2022/08/10 11:24:04;;;;;;;2.03;0.70;;;23.60;99.90;;;;;;5090208;28;20047;-73
2022/08/10 11:26:35;;;;;;;1.17;0.80;;;23.70;99.90;;;;;;5091893;28;20059;-75
2022/08/10 11:29:16;;;;;;;2.97;0.90;;;23.70;99.90;;;;;;5094360;28;20467;-73
2022/08/10 11:31:58;;;;;;;1.83;0.80;;;23.70;99.90;;;;;;5073121;28;20056;-74
2022/08/10 11:34:29;;;;;;;0.80;0.73;;;23.70;99.90;;;;;;5096533;28;20047;-74
2022/08/10 11:37:28;;;;;;;1.45;0.80;;;23.70;99.90;;;;;;5091409;28;20085;-75
2022/08/10 11:40:16;;;;;;;1.35;0.80;;;23.80;99.90;;;;;;5091213;28;20415;-75
2022/08/10 11:42:50;;;;;;;1.85;0.80;;;23.80;99.90;;;;;;5092119;28;20060;-75
2022/08/10 11:45:26;;;;;;;1.88;0.82;;;23.90;99.90;;;;;;5091810;28;20120;-74
2022/08/10 11:48:20;;;;;;;0.95;0.80;;;23.90;99.90;;;;;;5092546;28;20351;-74
2022/08/10 11:50:57;;;;;;;2.88;0.70;;;23.90;99.90;;;;;;5078298;28;20051;-75
2022/08/10 11:54:03;;;;;;;4.22;0.80;;;23.90;99.90;;;;;;5115423;28;20074;-75
2022/08/10 11:56:37;;;;;;;1.98;0.80;;;24.00;99.90;;;;;;5115656;28;20039;-74
2022/08/10 12:01:50;;;;;;;1.63;0.82;;;24.10;99.90;;;;;;5115052;28;20071;-75
2022/08/10 12:04:20;;;;;;;1.38;0.75;;;24.20;99.90;;;;;;5115073;27;20050;-75
2022/08/10 12:06:47;;;;;;;1.10;0.70;;;24.20;99.90;;;;;;5115739;28;20051;-75
2022/08/10 12:09:16;;;;;;;1.85;0.82;;;24.20;99.90;;;;;;5115675;28;20078;-75
2022/08/10 12:11:42;;;;;;;2.25;0.63;;;24.30;99.90;;;;;;5114947;28;20074;-75
2022/08/10 12:14:18;;;;;;;2.15;0.60;;;24.40;99.90;;;;;;5115030;28;20076;-75
2022/08/10 12:16:57;;;;;;;2.30;0.60;;;24.40;99.90;;;;;;5112038;28;20390;-76
2022/08/10 12:19:37;;;;;;;1.85;0.50;;;24.40;99.90;;;;;;5111776;28;20043;-76
2022/08/10 12:22:10;;;;;;;2.58;0.70;;;24.50;99.90;;;;;;5111677;28;20051;-75
2022/08/10 12:24:45;;;;;;;1.40;0.70;;;24.50;99.90;;;;;;5113764;28;20056;-75
2022/08/10 12:27:50;;;;;;;1.38;0.60;;;24.60;99.90;;;;;;5113915;28;20486;-74
2022/08/10 12:30:20;;;;;;;1.38;0.60;;;24.60;99.90;;;;;;5054191;28;20044;-74
2022/08/10 12:33:03;;;;;;;1.58;0.90;;;24.70;99.90;;;;;;5107024;28;20056;-75
2022/08/10 12:36:00;;;;;;;0.85;0.77;;;24.70;99.90;;;;;;5112356;28;20484;-74
2022/08/10 12:38:43;;;;;;;1.50;0.80;;;24.80;99.90;;;;;;5112134;28;20075;-74
2022/08/10 12:41:18;;;;;;;1.25;0.68;;;24.80;99.90;;;;;;5113801;28;20075;-74
2022/08/10 12:43:57;;;;;;;1.50;0.70;;;24.90;99.70;;;;;;5111913;28;20055;-74
2022/08/10 12:46:40;;;;;;;74.63;6.45;;;24.90;99.60;;;;;;5112668;28;20469;-74
2022/08/10 12:49:12;;;;;;;2.45;0.70;;;25.00;99.90;;;;;;5113514;28;20122;-75
2022/08/10 12:51:45;;;;;;;3.72;0.70;;;25.10;99.90;;;;;;5112322;28;20116;-75
2022/08/10 12:54:12;;;;;;;4.05;0.80;;;25.00;99.40;;;;;;5114251;27;20096;-75
2022/08/10 12:57:00;;;;;;;1.23;0.60;;;25.00;99.40;;;;;;5114194;28;20494;-74
2022/08/10 12:59:27;;;;;;;2.58;0.75;;;25.00;99.20;;;;;;5112858;28;20048;-75
2022/08/10 13:01:55;;;;;;;1.00;0.70;;;25.00;99.30;;;;;;5113863;28;20513;-75
2022/08/10 13:04:39;;;;;;;3.35;0.70;;;25.00;98.80;;;;;;5113791;28;20043;-75
2022/08/10 13:07:06;;;;;;;1.75;0.68;;;25.00;99.20;;;;;;5111900;28;20191;-75
2022/08/10 13:09:32;;;;;;;1.63;0.60;;;25.10;98.60;;;;;;5114229;28;20512;-75
2022/08/10 13:12:00;;;;;;;2.50;0.60;;;25.10;98.60;;;;;;5112490;28;20429;-75
2022/08/10 13:14:48;;;;;;;3.03;0.70;;;25.10;98.80;;;;;;5114124;28;20085;-75
2022/08/10 13:17:22;;;;;;;3.53;0.80;;;25.20;99.10;;;;;;5113423;28;20499;-75
2022/08/10 13:19:49;;;;;;;2.30;0.80;;;25.20;98.30;;;;;;5112799;28;20043;-75
2022/08/10 13:22:16;;;;;;;2.65;0.70;;;25.30;98.70;;;;;;5113278;28;20071;-75
2022/08/10 13:24:47;;;;;;;1.42;0.68;;;25.30;98.90;;;;;;5114085;28;20047;-75
2022/08/10 13:27:15;;;;;;;1.48;0.70;;;25.30;98.30;;;;;;5114052;28;20047;-75